Time;durP1;ratioP1;P1;durP2;ratioP2;P2;SDS_P1;SDS_P2;PMS_P1;PMS_P2;Temp;Humidity;BMP_temperature;BMP_pressure;BME280_temperature;BME280_humidity;BME280_pressure;Samples;Min_cycle;Max_cycle;Signal;HPM_P1;HPM_P2
2022/06/01 00:01:49;;;;;;;6.50;6.00;;;13.10;99.90;;;;;;5003247;28;20201;-76
2022/06/01 00:04:17;;;;;;;6.13;5.73;;;13.10;99.90;;;;;;5000656;28;20248;-76
2022/06/01 00:06:44;;;;;;;6.33;5.87;;;13.10;99.90;;;;;;5003952;28;20232;-75
2022/06/01 00:09:12;;;;;;;6.23;5.77;;;13.00;99.90;;;;;;5001231;28;20196;-76
2022/06/01 00:11:39;;;;;;;6.40;5.90;;;13.00;99.90;;;;;;5003609;28;20607;-76
2022/06/01 00:14:07;;;;;;;5.97;5.57;;;12.90;99.90;;;;;;5001670;28;20223;-76
2022/06/01 00:16:34;;;;;;;6.63;6.03;;;12.90;99.90;;;;;;4998067;28;20779;-76
2022/06/01 00:19:01;;;;;;;6.40;5.90;;;12.80;99.90;;;;;;5005697;28;20253;-75
2022/06/01 00:21:30;;;;;;;6.20;5.80;;;12.80;99.90;;;;;;5001290;28;20592;-76
2022/06/01 00:23:57;;;;;;;6.50;6.00;;;12.70;99.90;;;;;;5001912;28;20223;-76
2022/06/01 00:26:23;;;;;;;7.10;6.27;;;12.70;99.90;;;;;;5002222;28;20721;-76
2022/06/01 00:28:50;;;;;;;6.77;6.27;;;12.70;99.90;;;;;;4995589;28;20576;-76
2022/06/01 00:31:20;;;;;;;6.80;6.20;;;12.60;99.90;;;;;;5003256;28;20233;-76
2022/06/01 00:33:47;;;;;;;6.43;5.83;;;12.50;99.90;;;;;;4999991;28;20738;-76
2022/06/01 00:36:14;;;;;;;6.33;5.77;;;12.50;99.90;;;;;;5000330;28;20643;-76
2022/06/01 00:38:42;;;;;;;6.10;5.70;;;12.40;99.90;;;;;;5004159;28;20190;-76
2022/06/01 00:41:08;;;;;;;6.77;6.10;;;12.40;99.90;;;;;;5001649;28;20200;-76
2022/06/01 00:43:44;;;;;;;6.20;5.80;;;12.40;99.90;;;;;;5002418;28;20219;-75
2022/06/01 00:46:11;;;;;;;6.60;6.00;;;12.40;99.90;;;;;;5003214;28;20225;-76
2022/06/01 00:48:43;;;;;;;6.00;5.60;;;12.40;99.90;;;;;;4990079;28;20633;-76
2022/06/01 00:51:11;;;;;;;6.57;6.07;;;12.50;99.90;;;;;;5003523;28;20285;-76
2022/06/01 00:53:41;;;;;;;6.37;5.90;;;12.60;99.90;;;;;;4996584;28;20198;-76
2022/06/01 00:56:13;;;;;;;6.90;6.30;;;12.60;99.90;;;;;;4998714;28;20231;-77
2022/06/01 00:58:42;;;;;;;6.60;6.00;;;12.60;99.90;;;;;;4994487;28;20195;-76
2022/06/01 01:01:12;;;;;;;6.50;6.00;;;12.60;99.90;;;;;;5002525;28;20200;-77
2022/06/01 01:03:42;;;;;;;6.03;5.63;;;12.60;99.90;;;;;;5000441;28;20222;-75
2022/06/01 01:06:12;;;;;;;6.23;5.77;;;12.50;99.90;;;;;;5001869;28;20218;-75
2022/06/01 01:08:40;;;;;;;5.90;5.50;;;12.50;99.90;;;;;;4997658;28;20216;-75
2022/06/01 01:11:07;;;;;;;6.60;6.00;;;12.40;99.90;;;;;;5000949;28;20221;-74
2022/06/01 01:13:36;;;;;;;6.77;6.17;;;12.40;99.90;;;;;;4997097;28;20199;-75
2022/06/01 01:16:04;;;;;;;6.30;5.70;;;12.30;99.90;;;;;;4998904;28;20270;-77
2022/06/01 01:18:39;;;;;;;6.63;6.13;;;12.20;99.90;;;;;;5001046;28;20258;-77
2022/06/01 01:21:13;;;;;;;6.43;5.93;;;12.20;99.90;;;;;;5001037;28;20222;-77
2022/06/01 01:23:50;;;;;;;6.40;5.90;;;12.20;99.90;;;;;;4993354;28;20266;-75
2022/06/01 01:26:19;;;;;;;6.60;6.00;;;12.10;99.90;;;;;;5001181;28;20321;-75
2022/06/01 01:28:46;;;;;;;6.37;5.97;;;12.10;99.90;;;;;;4999830;28;20201;-77
2022/06/01 01:31:17;;;;;;;6.70;6.20;;;12.10;99.90;;;;;;5004258;28;20206;-76
2022/06/01 01:33:45;;;;;;;7.03;6.53;;;12.00;99.90;;;;;;4994672;28;20201;-75
2022/06/01 01:36:14;;;;;;;6.63;6.13;;;11.90;99.90;;;;;;4998999;28;20651;-76
2022/06/01 01:38:46;;;;;;;6.97;6.47;;;11.90;99.90;;;;;;5001823;28;20195;-77
2022/06/01 01:41:16;;;;;;;7.20;6.60;;;11.80;99.90;;;;;;5000751;28;20257;-76
2022/06/01 01:43:52;;;;;;;6.60;6.10;;;11.80;99.90;;;;;;4992720;28;20206;-76
2022/06/01 01:46:19;;;;;;;6.60;6.00;;;11.80;99.90;;;;;;5000994;28;20644;-77
2022/06/01 01:48:46;;;;;;;6.13;5.73;;;11.70;99.90;;;;;;4999792;28;20200;-77
2022/06/01 01:51:14;;;;;;;6.60;6.10;;;11.70;99.90;;;;;;5004876;28;20206;-77
2022/06/01 01:53:41;;;;;;;6.57;6.03;;;11.70;99.90;;;;;;4999448;28;20252;-77
2022/06/01 01:56:37;;;;;;;6.47;5.97;;;11.70;99.90;;;;;;4992482;28;20711;-77
2022/06/01 01:59:28;;;;;;;6.40;5.90;;;11.70;99.90;;;;;;4993209;28;20257;-77
2022/06/01 02:02:00;;;;;;;6.50;6.10;;;11.60;99.90;;;;;;4994855;28;20201;-77
2022/06/01 02:07:25;;;;;;;6.70;6.10;;;11.60;99.90;;;;;;5000152;28;20834;-77
2022/06/01 02:12:44;;;;;;;7.00;6.40;;;11.50;99.90;;;;;;4992165;28;20186;-77
2022/06/01 02:15:18;;;;;;;7.00;6.40;;;11.50;99.90;;;;;;5002089;28;20271;-77
2022/06/01 02:17:49;;;;;;;6.83;6.33;;;11.50;99.90;;;;;;4990019;28;20231;-77
2022/06/01 02:20:24;;;;;;;6.27;5.87;;;11.40;99.90;;;;;;4996722;28;20691;-77
2022/06/01 02:22:52;;;;;;;6.70;6.20;;;11.40;99.90;;;;;;4999708;28;20295;-77
2022/06/01 02:25:20;;;;;;;6.90;6.40;;;11.40;99.90;;;;;;5003804;28;20256;-76
2022/06/01 02:27:48;;;;;;;6.80;6.30;;;11.40;99.90;;;;;;5007053;28;20306;-77
2022/06/01 02:30:20;;;;;;;6.80;6.40;;;11.40;99.90;;;;;;5004769;28;20201;-77
2022/06/01 02:32:48;;;;;;;6.27;5.77;;;11.40;99.90;;;;;;5005210;28;20697;-77
2022/06/01 02:35:17;;;;;;;7.10;6.60;;;11.40;99.90;;;;;;5006855;28;20201;-77
2022/06/01 02:37:49;;;;;;;6.83;6.33;;;11.40;99.90;;;;;;5002624;28;20216;-77
2022/06/01 02:40:20;;;;;;;6.37;5.97;;;11.40;99.90;;;;;;5001141;28;20206;-76
2022/06/01 02:42:49;;;;;;;6.30;5.90;;;11.40;99.90;;;;;;5004556;28;20257;-79
2022/06/01 02:45:20;;;;;;;7.33;6.83;;;11.40;99.90;;;;;;5003407;28;20435;-77
2022/06/01 02:47:48;;;;;;;6.70;6.30;;;11.40;99.90;;;;;;5010355;23;20225;-76
2022/06/01 02:50:21;;;;;;;6.80;6.13;;;11.30;99.90;;;;;;4976124;28;20668;-75
2022/06/01 02:52:48;;;;;;;6.80;6.30;;;11.30;99.90;;;;;;4974720;28;20226;-76
2022/06/01 02:55:16;;;;;;;6.83;6.27;;;11.30;99.90;;;;;;4985441;28;20204;-74
2022/06/01 02:57:44;;;;;;;6.77;6.27;;;11.30;99.90;;;;;;4962191;28;20223;-74
2022/06/01 03:00:17;;;;;;;6.83;6.27;;;11.30;99.90;;;;;;4955188;29;20270;-75
2022/06/01 03:02:46;;;;;;;7.00;6.50;;;11.30;99.90;;;;;;4958497;28;20200;-75
2022/06/01 03:05:14;;;;;;;7.30;6.80;;;11.30;99.90;;;;;;4954910;28;20207;-75
2022/06/01 03:07:41;;;;;;;7.13;6.60;;;11.30;99.90;;;;;;4958204;28;20227;-77
2022/06/01 03:10:09;;;;;;;6.93;6.43;;;11.30;99.90;;;;;;4956684;28;20204;-75
2022/06/01 03:12:36;;;;;;;7.27;6.67;;;11.20;99.90;;;;;;4955155;28;20229;-74
2022/06/01 03:15:04;;;;;;;7.20;6.70;;;11.20;99.90;;;;;;4955779;28;20664;-74
2022/06/01 03:17:30;;;;;;;7.63;7.03;;;11.20;99.90;;;;;;4954415;28;20652;-75
2022/06/01 03:19:59;;;;;;;7.13;6.63;;;11.10;99.90;;;;;;4970705;28;20196;-75
2022/06/01 03:22:26;;;;;;;7.80;7.10;;;11.00;99.90;;;;;;4956146;28;20271;-74
2022/06/01 03:24:53;;;;;;;7.47;6.87;;;11.00;99.90;;;;;;4967494;28;20271;-75
2022/06/01 03:27:20;;;;;;;7.30;6.70;;;11.00;99.90;;;;;;4955351;28;20269;-75
2022/06/01 03:29:47;;;;;;;7.60;7.00;;;10.90;99.90;;;;;;4956350;28;20258;-76
2022/06/01 03:32:14;;;;;;;8.00;7.30;;;10.90;99.90;;;;;;4970911;28;20215;-77
2022/06/01 03:34:40;;;;;;;8.60;7.90;;;10.90;99.90;;;;;;4970966;28;20666;-75
2022/06/01 03:37:08;;;;;;;7.60;7.00;;;10.80;99.90;;;;;;4970956;28;20644;-75
2022/06/01 03:39:35;;;;;;;7.77;7.10;;;10.80;99.90;;;;;;4970850;28;20200;-75
2022/06/01 03:42:03;;;;;;;7.93;7.23;;;10.80;99.90;;;;;;4969830;28;20290;-74
2022/06/01 03:47:14;;;;;;;7.17;6.67;;;10.90;99.90;;;;;;4952921;28;20214;-75
2022/06/01 03:49:42;;;;;;;8.20;7.27;;;10.90;99.90;;;;;;4955821;28;20202;-74
2022/06/01 03:52:11;;;;;;;7.43;6.83;;;11.00;99.90;;;;;;4955628;28;20207;-74
2022/06/01 03:54:39;;;;;;;7.80;7.20;;;11.10;99.90;;;;;;4955096;28;20214;-75
2022/06/01 03:57:07;;;;;;;7.47;6.87;;;11.10;99.90;;;;;;4954794;28;20262;-75
2022/06/01 03:59:35;;;;;;;7.30;6.70;;;11.10;99.90;;;;;;4955238;28;20252;-74
2022/06/01 04:02:02;;;;;;;7.93;7.33;;;11.20;99.90;;;;;;4955071;29;20199;-74
2022/06/01 04:04:29;;;;;;;7.40;6.80;;;11.30;99.90;;;;;;4955388;28;20620;-74
2022/06/01 04:06:55;;;;;;;7.67;7.07;;;11.40;99.90;;;;;;4955440;28;20211;-75
2022/06/01 04:09:25;;;;;;;7.60;7.00;;;11.40;99.90;;;;;;4953797;28;20250;-74
2022/06/01 04:11:52;;;;;;;7.13;6.63;;;11.50;99.90;;;;;;4954775;28;20604;-74
2022/06/01 04:14:19;;;;;;;8.30;7.60;;;11.60;99.90;;;;;;4969721;28;20693;-74
2022/06/01 04:16:46;;;;;;;3.63;3.33;;;11.70;99.90;;;;;;4955184;28;20807;-74
2022/06/01 04:19:13;;;;;;;3.30;3.00;;;11.70;99.90;;;;;;4955333;28;20571;-74
2022/06/01 04:21:42;;;;;;;4.83;3.60;;;11.80;99.90;;;;;;4970045;28;20245;-74
2022/06/01 04:24:13;;;;;;;3.47;3.17;;;11.90;99.90;;;;;;4955236;28;20246;-74
2022/06/01 04:26:42;;;;;;;7.70;7.17;;;12.00;99.90;;;;;;4965169;28;20220;-74
2022/06/01 04:29:09;;;;;;;3.57;3.27;;;12.10;99.90;;;;;;4955157;28;20195;-74
2022/06/01 04:31:37;;;;;;;3.97;2.83;;;12.20;99.90;;;;;;4943546;28;20203;-75
2022/06/01 04:34:04;;;;;;;3.30;3.00;;;12.40;99.90;;;;;;4955248;28;20284;-75
2022/06/01 04:36:31;;;;;;;5.27;4.80;;;12.50;99.90;;;;;;4953568;28;20608;-74
2022/06/01 04:38:58;;;;;;;6.00;5.50;;;12.60;99.90;;;;;;4955156;28;20201;-74
2022/06/01 04:41:25;;;;;;;3.43;3.13;;;12.80;99.90;;;;;;4969512;28;20257;-75
2022/06/01 04:43:53;;;;;;;6.90;6.40;;;12.80;99.90;;;;;;4954846;28;20202;-75
2022/06/01 04:46:20;;;;;;;6.47;5.97;;;12.90;99.90;;;;;;4968982;28;20238;-74
2022/06/01 04:48:47;;;;;;;7.20;6.60;;;13.00;99.90;;;;;;4969700;28;20742;-74
2022/06/01 04:51:15;;;;;;;4.90;4.50;;;13.20;99.90;;;;;;4953169;28;20210;-75
2022/06/01 04:53:43;;;;;;;4.43;3.83;;;13.60;99.90;;;;;;4954572;28;20638;-75
2022/06/01 04:56:11;;;;;;;4.90;4.50;;;14.00;99.90;;;;;;4954756;28;20576;-75
2022/06/01 04:58:38;;;;;;;5.23;4.87;;;14.20;99.90;;;;;;4952754;28;20739;-75
2022/06/01 05:01:07;;;;;;;6.23;5.80;;;14.20;99.90;;;;;;4956567;28;20227;-75
2022/06/01 05:03:34;;;;;;;6.90;6.30;;;14.20;99.90;;;;;;4954625;28;20266;-75
2022/06/01 05:06:01;;;;;;;6.00;5.50;;;14.00;99.90;;;;;;4954197;28;20250;-75
2022/06/01 05:08:27;;;;;;;6.50;5.90;;;14.10;99.90;;;;;;4953901;28;20468;-75
2022/06/01 05:10:54;;;;;;;6.40;5.90;;;14.10;99.90;;;;;;4953598;29;20744;-75
2022/06/01 05:13:21;;;;;;;6.53;6.03;;;14.10;99.90;;;;;;4952517;28;20206;-75
2022/06/01 05:15:50;;;;;;;7.30;6.80;;;14.20;99.90;;;;;;4953705;28;20227;-75
2022/06/01 05:18:18;;;;;;;5.63;5.23;;;14.30;99.90;;;;;;4952693;28;20235;-75
2022/06/01 05:20:46;;;;;;;5.77;5.20;;;14.50;99.90;;;;;;4953947;28;20668;-75
2022/06/01 05:23:13;;;;;;;7.47;6.77;;;14.70;99.90;;;;;;4954179;28;20204;-74
2022/06/01 05:25:40;;;;;;;7.10;6.50;;;14.70;99.90;;;;;;4954050;28;20247;-75
2022/06/01 05:28:07;;;;;;;6.90;6.30;;;14.80;99.90;;;;;;4954012;28;20311;-74
2022/06/01 05:30:34;;;;;;;6.97;6.47;;;14.90;99.90;;;;;;4954040;28;20198;-74
2022/06/01 05:33:01;;;;;;;5.87;5.47;;;15.10;99.90;;;;;;4965571;28;20261;-75
2022/06/01 05:35:29;;;;;;;7.03;6.20;;;15.40;99.90;;;;;;4952518;28;20221;-75
2022/06/01 05:37:56;;;;;;;5.67;5.17;;;15.50;99.90;;;;;;4953850;28;20266;-75
2022/06/01 05:40:24;;;;;;;5.60;5.13;;;15.80;99.90;;;;;;4968569;28;20664;-75
2022/06/01 05:42:51;;;;;;;6.90;6.30;;;16.10;99.90;;;;;;4968800;28;20264;-75
2022/06/01 05:45:18;;;;;;;6.20;5.80;;;16.60;99.90;;;;;;4967743;28;20262;-75
2022/06/01 05:47:45;;;;;;;5.87;4.50;;;17.30;99.90;;;;;;4970285;28;20230;-75
2022/06/01 05:50:12;;;;;;;6.87;6.23;;;17.40;99.90;;;;;;4965529;28;20209;-75
2022/06/01 05:52:40;;;;;;;6.03;5.50;;;17.80;99.90;;;;;;4953499;28;20250;-75
2022/06/01 05:55:09;;;;;;;6.80;6.20;;;18.50;99.90;;;;;;4952448;28;20316;-75
2022/06/01 05:57:36;;;;;;;5.63;5.10;;;19.10;99.90;;;;;;4964614;28;20297;-76
2022/06/01 06:00:05;;;;;;;4.97;4.67;;;19.80;99.90;;;;;;4953674;28;20668;-76
2022/06/01 06:02:39;;;;;;;6.80;5.87;;;20.20;99.90;;;;;;4945902;28;20283;-76
2022/06/01 06:06:11;;;;;;;5.47;4.97;;;20.40;99.90;;;;;;4953523;28;20194;-75
2022/06/01 06:07:56;;;;;;;6.10;5.60;;;20.70;99.90;;;;;;4948049;28;20228;-76
2022/06/01 06:10:23;;;;;;;5.83;5.43;;;21.10;99.90;;;;;;4953213;28;20716;-76
2022/06/01 06:12:50;;;;;;;5.17;4.80;;;21.40;99.90;;;;;;4952767;28;20202;-75
2022/06/01 06:15:18;;;;;;;5.70;5.30;;;21.60;99.90;;;;;;4953054;29;20703;-76
2022/06/01 06:17:45;;;;;;;6.20;5.80;;;21.60;99.90;;;;;;4953287;28;20237;-76
2022/06/01 06:20:13;;;;;;;6.17;5.57;;;21.60;99.90;;;;;;4968101;28;20250;-75
2022/06/01 06:22:39;;;;;;;6.17;5.70;;;21.70;99.90;;;;;;4967766;28;20207;-75
2022/06/01 06:25:08;;;;;;;6.97;6.50;;;21.70;99.90;;;;;;4965000;28;20196;-75
2022/06/01 06:27:35;;;;;;;6.67;6.20;;;21.90;99.90;;;;;;4953211;28;20218;-75
2022/06/01 06:30:02;;;;;;;6.00;5.50;;;22.20;99.90;;;;;;4968206;28;20261;-76
2022/06/01 06:32:29;;;;;;;5.17;4.70;;;22.20;99.90;;;;;;4953021;29;20198;-76
2022/06/01 06:34:56;;;;;;;5.47;5.07;;;22.30;99.90;;;;;;4953268;28;20221;-76
2022/06/01 06:37:22;;;;;;;6.20;5.60;;;22.60;99.90;;;;;;4953240;28;20771;-76
2022/06/01 06:39:49;;;;;;;5.67;5.10;;;22.90;99.90;;;;;;4968033;28;20206;-77
2022/06/01 06:42:17;;;;;;;6.87;6.37;;;23.20;99.90;;;;;;4953037;28;20257;-75
2022/06/01 06:44:44;;;;;;;5.80;5.37;;;23.20;99.90;;;;;;4955769;28;20603;-76
2022/06/01 06:47:11;;;;;;;6.40;6.00;;;23.50;99.90;;;;;;4952967;28;20687;-76
2022/06/01 06:49:38;;;;;;;3.50;2.60;;;23.60;99.90;;;;;;4967909;28;20258;-75
2022/06/01 06:52:05;;;;;;;3.43;2.80;;;23.70;99.90;;;;;;4953246;28;20826;-76
2022/06/01 06:54:33;;;;;;;3.40;2.77;;;23.60;99.90;;;;;;4953203;28;20203;-76
2022/06/01 06:57:00;;;;;;;4.73;4.20;;;23.80;99.90;;;;;;4953119;28;20285;-75
2022/06/01 06:59:28;;;;;;;5.37;4.87;;;24.00;99.90;;;;;;4952944;28;20230;-76
2022/06/01 07:01:55;;;;;;;2.67;2.47;;;24.10;99.90;;;;;;4952535;28;20202;-76
2022/06/01 07:04:21;;;;;;;2.50;2.30;;;24.40;99.90;;;;;;4966122;28;20263;-75
2022/06/01 07:06:49;;;;;;;6.93;4.70;;;24.60;99.90;;;;;;4975557;28;20230;-76
2022/06/01 07:09:16;;;;;;;6.23;5.80;;;24.40;99.90;;;;;;4955229;28;20203;-76
2022/06/01 07:11:43;;;;;;;6.03;5.63;;;24.30;99.90;;;;;;4956603;28;20746;-75
2022/06/01 07:14:09;;;;;;;5.13;4.37;;;24.30;99.90;;;;;;4971240;28;20217;-76
2022/06/01 07:16:38;;;;;;;6.07;5.23;;;23.70;99.90;;;;;;4955264;28;20230;-77
2022/06/01 07:19:06;;;;;;;3.90;3.60;;;23.10;99.90;;;;;;4956459;28;20254;-75
2022/06/01 07:21:36;;;;;;;6.13;5.53;;;22.70;99.90;;;;;;4956549;28;20191;-75
2022/06/01 07:24:04;;;;;;;5.30;3.20;;;22.60;99.90;;;;;;4956463;28;20198;-77
2022/06/01 07:26:32;;;;;;;5.13;4.73;;;22.30;99.90;;;;;;4955930;28;20222;-75
2022/06/01 07:28:59;;;;;;;4.60;2.77;;;21.90;99.90;;;;;;4955754;28;20222;-75
2022/06/01 07:31:26;;;;;;;6.10;5.27;;;21.70;99.90;;;;;;4955820;29;20210;-75
2022/06/01 07:33:54;;;;;;;5.90;5.37;;;21.70;99.90;;;;;;4970891;28;20202;-76
2022/06/01 07:36:21;;;;;;;4.17;3.00;;;21.40;99.90;;;;;;4970754;28;20236;-75
2022/06/01 07:44:31;;;;;;;4.07;3.03;;;21.90;99.90;;;;;;4932015;28;20207;-75
2022/06/01 07:46:58;;;;;;;3.33;2.40;;;22.40;99.90;;;;;;4955917;28;20230;-76
2022/06/01 07:49:27;;;;;;;3.03;2.20;;;23.00;99.90;;;;;;4955725;28;20202;-76
2022/06/01 07:51:54;;;;;;;5.30;4.90;;;23.70;99.90;;;;;;4951310;28;20203;-76
2022/06/01 07:54:22;;;;;;;4.90;4.60;;;24.10;99.90;;;;;;4953817;28;20205;-76
2022/06/01 07:56:49;;;;;;;6.17;5.77;;;24.60;99.90;;;;;;4956009;28;20230;-76
2022/06/01 07:59:16;;;;;;;8.00;5.87;;;24.90;99.90;;;;;;4954241;29;20293;-76
2022/06/01 08:01:43;;;;;;;6.30;5.80;;;25.10;99.90;;;;;;4955480;28;20198;-77
2022/06/01 08:04:11;;;;;;;6.57;5.97;;;25.50;99.90;;;;;;4955648;28;20214;-76
2022/06/01 08:06:39;;;;;;;6.27;5.80;;;25.60;99.90;;;;;;4955304;28;20206;-76
2022/06/01 08:09:07;;;;;;;5.70;5.20;;;25.90;99.90;;;;;;4955628;28;20546;-76
2022/06/01 08:14:21;;;;;;;5.20;4.80;;;26.40;98.80;;;;;;4945680;28;20211;-76
2022/06/01 08:16:48;;;;;;;5.30;4.80;;;26.60;95.40;;;;;;4953888;28;20273;-76
2022/06/01 08:19:16;;;;;;;6.17;4.60;;;26.80;95.40;;;;;;4955091;28;20281;-77
2022/06/01 08:21:45;;;;;;;4.77;4.47;;;26.90;95.00;;;;;;4969329;28;20266;-76
2022/06/01 08:24:13;;;;;;;5.80;5.40;;;27.00;94.10;;;;;;4955425;28;20190;-76
2022/06/01 08:26:39;;;;;;;2.00;1.80;;;27.10;93.10;;;;;;4954798;28;20211;-76
2022/06/01 08:29:06;;;;;;;4.20;3.90;;;27.30;93.20;;;;;;4955032;28;20254;-76
2022/06/01 08:31:34;;;;;;;4.13;3.83;;;27.30;92.90;;;;;;4954593;29;20746;-77
2022/06/01 08:34:02;;;;;;;3.03;2.60;;;27.10;92.70;;;;;;4970079;28;20730;-76
2022/06/01 08:36:29;;;;;;;3.87;3.57;;;27.40;92.70;;;;;;4954877;28;20226;-76
2022/06/01 08:38:58;;;;;;;3.87;3.63;;;27.20;91.90;;;;;;4955045;28;20668;-76
2022/06/01 08:41:30;;;;;;;3.67;3.37;;;26.60;91.70;;;;;;4974814;28;20201;-76
2022/06/01 08:44:00;;;;;;;2.17;1.93;;;26.80;91.00;;;;;;4954865;28;20191;-76
2022/06/01 08:46:29;;;;;;;3.13;2.93;;;26.60;90.40;;;;;;4955868;28;20270;-75
2022/06/01 08:49:00;;;;;;;2.30;2.20;;;26.40;90.20;;;;;;4949650;29;20638;-76
2022/06/01 08:51:29;;;;;;;3.67;3.30;;;26.40;89.80;;;;;;4954345;28;20203;-76
2022/06/01 08:53:59;;;;;;;3.03;2.83;;;25.90;89.20;;;;;;4953220;28;20285;-76
2022/06/01 08:56:31;;;;;;;3.50;3.30;;;25.30;90.80;;;;;;4969223;28;20234;-76
2022/06/01 08:59:05;;;;;;;2.80;2.30;;;25.10;90.90;;;;;;4954676;28;20446;-76
2022/06/01 09:01:38;;;;;;;1.93;1.80;;;25.60;90.00;;;;;;4954281;28;20207;-76
2022/06/01 09:04:12;;;;;;;1.80;1.70;;;26.00;89.90;;;;;;4954572;28;20206;-75
2022/06/01 09:06:44;;;;;;;2.03;1.70;;;26.60;89.90;;;;;;4949595;28;20214;-75
2022/06/01 09:09:18;;;;;;;2.20;2.00;;;27.20;89.80;;;;;;4954001;29;20211;-76
2022/06/01 09:11:47;;;;;;;3.87;3.57;;;27.80;88.40;;;;;;4954523;28;20258;-76
2022/06/01 09:14:21;;;;;;;1.97;1.63;;;27.80;88.30;;;;;;4969331;28;20636;-77
2022/06/01 09:16:51;;;;;;;5.03;4.60;;;27.80;86.50;;;;;;4954110;28;20218;-76
2022/06/01 09:19:22;;;;;;;2.67;2.33;;;27.10;82.60;;;;;;4952736;28;20210;-76
2022/06/01 09:24:40;;;;;;;2.43;1.90;;;26.00;83.90;;;;;;4949573;28;20335;-76
2022/06/01 09:27:10;;;;;;;4.30;4.07;;;26.00;86.50;;;;;;4954283;28;20218;-75
2022/06/01 09:29:45;;;;;;;4.90;4.60;;;26.20;85.30;;;;;;4953981;28;20194;-77
2022/06/01 09:32:28;;;;;;;1.73;1.63;;;26.30;84.20;;;;;;4955290;28;20285;-76
2022/06/01 09:34:58;;;;;;;2.33;1.80;;;26.70;85.90;;;;;;4954167;28;20198;-75
2022/06/01 09:37:27;;;;;;;4.60;4.30;;;27.00;85.30;;;;;;4954001;28;20218;-77
2022/06/01 09:39:57;;;;;;;2.83;1.77;;;27.20;82.40;;;;;;4953322;28;20664;-76
2022/06/01 09:42:28;;;;;;;1.63;1.53;;;27.50;82.80;;;;;;4953998;28;20664;-77
2022/06/01 09:44:57;;;;;;;3.33;3.10;;;28.00;82.10;;;;;;4954077;28;20623;-76
2022/06/01 09:47:36;;;;;;;5.03;4.63;;;28.10;78.80;;;;;;4952549;28;20234;-76
2022/06/01 09:50:04;;;;;;;5.30;4.80;;;27.90;78.00;;;;;;4952656;28;20264;-76
2022/06/01 09:52:35;;;;;;;5.23;4.83;;;27.40;78.10;;;;;;4953657;28;20273;-76
2022/06/01 09:55:13;;;;;;;5.87;5.47;;;27.40;78.90;;;;;;4964147;28;20632;-76
2022/06/01 09:57:40;;;;;;;2.00;1.80;;;27.80;79.20;;;;;;4954042;28;20261;-76
2022/06/01 10:06:09;;;;;;;2.47;2.23;;;27.30;77.60;;;;;;4949015;28;20274;-76
2022/06/01 10:08:42;;;;;;;3.23;2.93;;;26.90;79.10;;;;;;4953676;28;20237;-75
2022/06/01 10:11:28;;;;;;;3.67;3.40;;;26.90;80.00;;;;;;4953260;28;20284;-75
2022/06/01 10:14:03;;;;;;;4.47;4.07;;;27.00;78.90;;;;;;4948221;28;20208;-75
2022/06/01 10:16:39;;;;;;;3.23;2.50;;;27.10;79.60;;;;;;4967428;28;20227;-75
2022/06/01 10:19:11;;;;;;;3.90;3.60;;;27.10;78.50;;;;;;4953656;28;20194;-76
2022/06/01 10:21:48;;;;;;;3.47;3.17;;;27.00;77.60;;;;;;4945541;29;20241;-76
2022/06/01 10:24:20;;;;;;;2.43;1.90;;;27.10;79.70;;;;;;4965899;28;20239;-76
2022/06/01 10:26:55;;;;;;;1.70;1.60;;;27.20;78.60;;;;;;4952424;29;20216;-76
2022/06/01 10:29:29;;;;;;;2.77;1.60;;;27.30;79.60;;;;;;4954227;28;20202;-76
2022/06/01 10:31:59;;;;;;;1.83;1.73;;;27.50;79.50;;;;;;4953238;28;20242;-76
2022/06/01 10:34:32;;;;;;;2.20;2.10;;;27.50;79.10;;;;;;4951814;29;20202;-76
2022/06/01 10:37:03;;;;;;;4.07;3.77;;;27.40;77.30;;;;;;4965732;28;20782;-77
2022/06/01 10:39:35;;;;;;;3.63;2.93;;;26.80;78.60;;;;;;4953528;28;20680;-77
2022/06/01 10:42:09;;;;;;;3.53;1.87;;;26.50;81.00;;;;;;4968521;28;20199;-76
2022/06/01 10:44:42;;;;;;;1.80;1.70;;;26.10;78.40;;;;;;4970778;28;20203;-77
2022/06/01 10:47:14;;;;;;;3.10;2.90;;;25.90;81.40;;;;;;4969178;28;20719;-76
2022/06/01 10:49:49;;;;;;;3.03;1.70;;;25.90;80.90;;;;;;4956952;29;20198;-76
2022/06/01 10:52:25;;;;;;;2.43;1.80;;;26.00;79.30;;;;;;4955447;28;20201;-77
2022/06/01 10:55:02;;;;;;;5.13;2.33;;;26.10;81.80;;;;;;4956762;28;20202;-76
2022/06/01 10:57:31;;;;;;;2.43;1.70;;;26.30;80.60;;;;;;4970703;28;20599;-76
2022/06/01 10:59:58;;;;;;;2.60;1.70;;;26.40;78.60;;;;;;4956215;29;20194;-75
2022/06/01 11:02:39;;;;;;;2.80;1.50;;;26.30;78.90;;;;;;4956758;28;20634;-75
2022/06/01 11:05:25;;;;;;;1.87;1.70;;;26.40;80.50;;;;;;4955241;28;20621;-76
2022/06/01 11:08:03;;;;;;;1.83;1.70;;;26.40;80.20;;;;;;4961354;28;20618;-76
2022/06/01 11:10:42;;;;;;;1.93;1.83;;;26.50;80.60;;;;;;4956411;28;20774;-74
2022/06/01 11:13:23;;;;;;;2.30;1.70;;;26.60;83.30;;;;;;4953081;28;20278;-76
2022/06/01 11:16:01;;;;;;;2.43;1.83;;;26.50;82.30;;;;;;4966739;28;20227;-76
2022/06/01 11:18:49;;;;;;;2.47;1.87;;;26.30;79.50;;;;;;4956500;28;20206;-75
2022/06/01 11:21:35;;;;;;;3.23;1.50;;;26.10;80.10;;;;;;4968656;28;20211;-76
2022/06/01 11:24:42;;;;;;;1.90;1.80;;;26.10;79.00;;;;;;4956310;28;20261;-76
2022/06/01 11:27:31;;;;;;;2.13;1.97;;;26.10;78.50;;;;;;4955035;28;20302;-76
2022/06/01 11:30:07;;;;;;;4.33;4.10;;;25.90;79.70;;;;;;4956048;29;20246;-76
2022/06/01 11:32:39;;;;;;;4.63;4.13;;;26.00;80.00;;;;;;4955625;28;20186;-76
2022/06/01 11:35:21;;;;;;;1.67;1.57;;;26.00;80.90;;;;;;4955941;29;20737;-76
2022/06/01 11:37:56;;;;;;;1.70;1.60;;;26.00;81.60;;;;;;4969344;28;20261;-76
2022/06/01 11:40:32;;;;;;;1.67;1.57;;;26.20;81.20;;;;;;4956147;29;20497;-76
2022/06/01 11:43:05;;;;;;;2.67;1.83;;;26.20;80.70;;;;;;4956064;28;20202;-75
2022/06/01 11:45:37;;;;;;;3.80;3.50;;;26.10;80.30;;;;;;4956212;28;20262;-76
2022/06/01 11:48:08;;;;;;;4.53;3.63;;;26.10;80.10;;;;;;4956028;28;20218;-76
2022/06/01 11:50:57;;;;;;;4.70;4.40;;;26.10;79.10;;;;;;4954583;28;20246;-76
2022/06/01 11:53:33;;;;;;;5.10;4.67;;;26.00;78.70;;;;;;4955942;28;20686;-76
2022/06/01 11:56:14;;;;;;;5.23;4.80;;;26.00;80.40;;;;;;4953568;28;20582;-76
2022/06/01 11:58:45;;;;;;;4.90;4.50;;;26.10;78.70;;;;;;4948806;29;20619;-76
2022/06/01 12:01:15;;;;;;;4.50;4.20;;;25.90;79.00;;;;;;4955793;28;20198;-76
2022/06/01 12:04:09;;;;;;;4.43;4.20;;;25.80;78.60;;;;;;4970596;28;20206;-76
2022/06/01 12:06:42;;;;;;;4.50;4.20;;;25.80;79.00;;;;;;4970390;28;20215;-76
2022/06/01 12:09:18;;;;;;;2.20;1.80;;;25.70;78.70;;;;;;4955959;28;20198;-76
2022/06/01 12:11:47;;;;;;;1.87;1.70;;;25.50;79.40;;;;;;4955506;28;20194;-76
2022/06/01 12:14:30;;;;;;;2.33;1.73;;;25.20;79.90;;;;;;4967572;28;20207;-76
2022/06/01 12:17:29;;;;;;;2.50;2.30;;;25.10;79.80;;;;;;4967052;28;20278;-77
2022/06/01 12:20:18;;;;;;;2.63;2.53;;;25.10;81.00;;;;;;4961977;28;20250;-76
2022/06/01 12:28:47;;;;;;;2.00;1.90;;;25.50;79.60;;;;;;4948411;28;20198;-76
2022/06/01 12:31:17;;;;;;;1.90;1.70;;;25.60;79.20;;;;;;4967132;28;20208;-76
2022/06/01 12:34:04;;;;;;;2.17;1.70;;;25.70;78.60;;;;;;4955249;28;20221;-76
2022/06/01 12:36:39;;;;;;;1.93;1.63;;;25.70;78.60;;;;;;4954827;28;20251;-75
2022/06/01 12:39:06;;;;;;;2.43;1.80;;;25.70;78.40;;;;;;4953905;28;20198;-75
2022/06/01 12:41:36;;;;;;;1.53;1.43;;;25.80;79.30;;;;;;4969652;28;20253;-76
2022/06/01 12:44:08;;;;;;;2.53;1.70;;;26.00;80.80;;;;;;4969909;28;20289;-77
2022/06/01 12:46:39;;;;;;;3.03;2.73;;;25.80;79.60;;;;;;4954774;28;20273;-76
2022/06/01 12:49:28;;;;;;;2.40;2.27;;;25.70;78.20;;;;;;4957917;28;20195;-76
2022/06/01 12:51:57;;;;;;;4.30;4.00;;;25.70;78.60;;;;;;4946669;28;20249;-76
2022/06/01 12:54:29;;;;;;;4.33;4.03;;;25.80;79.60;;;;;;4955609;29;20199;-76
2022/06/01 12:56:56;;;;;;;4.30;4.10;;;26.20;77.90;;;;;;4949539;28;20219;-76
2022/06/01 12:59:23;;;;;;;4.90;4.50;;;26.40;77.90;;;;;;4969517;28;20203;-76
2022/06/01 13:01:58;;;;;;;4.43;4.17;;;26.50;76.00;;;;;;4954529;28;20207;-77
2022/06/01 13:04:27;;;;;;;3.27;2.93;;;26.30;75.60;;;;;;4954238;28;20202;-76
2022/06/01 13:06:55;;;;;;;3.30;3.10;;;26.00;78.40;;;;;;4953985;28;20214;-76
2022/06/01 13:09:25;;;;;;;3.20;2.90;;;25.90;79.70;;;;;;4954705;28;20213;-75
2022/06/01 13:12:00;;;;;;;1.70;1.60;;;25.90;78.30;;;;;;4956362;28;20209;-78
2022/06/01 13:14:29;;;;;;;2.63;2.43;;;25.60;80.40;;;;;;4953175;28;20202;-76
2022/06/01 13:17:00;;;;;;;4.47;1.93;;;25.50;79.60;;;;;;4949917;28;20219;-76
2022/06/01 13:19:31;;;;;;;3.00;2.73;;;25.40;81.10;;;;;;4967093;28;20262;-75
2022/06/01 13:22:02;;;;;;;3.43;3.13;;;25.30;83.10;;;;;;4954300;28;20249;-74
2022/06/01 13:24:30;;;;;;;5.50;4.60;;;25.20;82.80;;;;;;4954497;28;20254;-77
2022/06/01 13:26:58;;;;;;;4.83;4.47;;;25.20;84.10;;;;;;4954209;28;20270;-79
2022/06/01 13:29:33;;;;;;;5.20;4.80;;;25.40;82.30;;;;;;4953399;28;20198;-77
2022/06/01 13:32:06;;;;;;;4.10;2.03;;;25.60;82.80;;;;;;4954695;28;20198;-78
2022/06/01 13:34:42;;;;;;;3.07;2.17;;;25.50;79.80;;;;;;4954453;28;20198;-78
2022/06/01 13:37:15;;;;;;;2.40;2.20;;;25.60;81.70;;;;;;4965827;28;20273;-76